Portada
METAR-TAF:

METAR-TAF

Aeropuertos :

Aeropuerto de Sevilla

Sevilla, España

latitud: 37-25N, longitud: 005-54W, altitud: 34 m

Observación

El informe se hizo hace 16 minutos, a las 08:30 UTC
Viento 5 kt del norte-noreste, variando entre noroeste y noreste
Temperatura 13°C
Humedad 94%
Presión 1014 hPa
Visibilidad 10 km o más
sin nubes por debajo de 1500 m y sin presencia de cumulonimbus.

METAR: LEZL 170830Z 02005KT 320V050 CAVOK 13/12 Q1014 NOSIG

Hora: 09:46 (08:46 UTC)

Pronóstico

El informe se hizo hace 46 minutos, a las 08:00 UTC
Pronóstico válido del 17 a las 09 UTC al 18 a las 09 UTC
Viento 6 kt del este
Visibilidad 10 km o más
Escasas nubes a una altura de 3500 ft
Temporalmente
del 18 a las 04 UTC al 18 a las 09 UTC
Visibilidad: 4000 m
lluvia

TAF: LEZL 170800Z 1709/1809 10006KT 9999 FEW035 TX22/1715Z TN13/1805Z TEMPO 1804/1809 4000 RA

Observaciones y pronósticos meteorológicos de más de 4000 aeropuertos (mensajes METAR y TAF).

Los puntos amarillos y rojos representan las estaciones disponibles.

Ponga el ratón en el punto deseado para ver el nombre de la estación.

Haga clic para ver las observaciones y los pronósticos meteorológicos.

Para cambiar el mapa : haga clic en los botones verdes con una cruz de color negro para hacer un zoom, en el botón verde con un guión para alejar o en las flechas verdes para mapas adyacentes.


METAR-TAF: